Aroda, Virginia
Current Conditions -  °F | °C
As of 9:15 AM on Monday 22 Dec 2014 (Local Time) from KOMH Reporting Station
Unknown Precip Unknown Precip  
Wind Chill: -3°   Ceiling: 3400
Heat Index:   Visibility: 4mi
Dew Point: -1°   Wind: 5mph
Humidity: 93%   Direction: 340°NNW
Pressure: 30.29"   Gusts: NA
Location:  38.33°N, 78.24°W
Report Text: KOMH 221415Z AUTO 34004KT 4SM UP BKN034 OVC042 00/M01 A3029 RMK AO2
Loading
Personal Weather Stations






























Interactive Weather Map New forecast layout! Learn more

10-Day Weather Forecast

Advertisements
Track Severe Weather on mobile